createdAt,value
2024-04-19T00:00:40.683Z,2.4
2024-04-19T00:15:39.472Z,2.5
2024-04-19T00:30:40.695Z,2.5
2024-04-19T00:45:40.984Z,2.2
2024-04-19T01:00:41.638Z,2.3
2024-04-19T01:15:42.021Z,2.5
2024-04-19T01:30:42.994Z,2.5
2024-04-19T01:45:44.026Z,2.3
2024-04-19T02:00:44.442Z,2.4
2024-04-19T02:15:45.881Z,2.4
2024-04-19T02:30:48.303Z,2.4
2024-04-19T02:45:58.814Z,2.4
2024-04-19T03:00:47.548Z,2.3
2024-04-19T03:15:48.060Z,2.3
2024-04-19T03:30:48.970Z,2.4
2024-04-19T03:45:50.234Z,2.4
2024-04-19T04:00:52.518Z,2.3
2024-04-19T04:15:51.246Z,2.2
2024-04-19T04:30:51.114Z,2.3
2024-04-19T04:40:08.691Z,2.3
2024-04-19T04:55:08.604Z,2.4
2024-04-19T05:10:09.119Z,2.4
2024-04-19T05:25:10.100Z,2.6
2024-04-19T05:40:10.171Z,2.8
2024-04-19T05:55:11.155Z,2.8
2024-04-19T06:10:16.154Z,2.8
2024-04-19T06:25:12.409Z,3
2024-04-19T06:40:16.740Z,3
2024-04-19T06:55:14.153Z,3
2024-04-19T07:10:15.050Z,3.1
2024-04-19T07:25:15.164Z,2.8
2024-04-19T07:40:16.044Z,2.8
2024-04-19T07:55:20.092Z,2.9
2024-04-19T08:10:17.785Z,2.8
2024-04-19T08:40:19.589Z,3.3
2024-04-19T08:55:19.183Z,3.4
2024-04-19T09:10:21.885Z,3.3
2024-04-19T09:25:21.585Z,3.4
2024-04-19T09:40:28.218Z,3.4
2024-04-19T09:55:23.994Z,3.9
2024-04-19T10:10:23.775Z,4.1
2024-04-19T10:25:33.555Z,4.1
2024-04-19T10:40:23.277Z,4.2
2024-04-19T10:55:25.407Z,4.6
2024-04-19T11:10:25.148Z,4.7
2024-04-19T11:25:25.641Z,4.6
2024-04-19T11:40:27.112Z,4.6
2024-04-19T11:55:27.592Z,4.5
2024-04-19T12:10:27.781Z,4.1
2024-04-19T12:25:42.171Z,4.1
2024-04-19T12:41:08.754Z,3.9
2024-04-19T12:55:58.637Z,3.5
2024-04-19T13:10:30.400Z,3.3
2024-04-19T13:25:42.526Z,3.3
2024-04-19T13:40:36.155Z,3.3
2024-04-19T13:55:38.469Z,3.1
2024-04-19T14:10:33.421Z,3
2024-04-19T14:25:39.756Z,3
2024-04-19T14:40:34.420Z,2.8
2024-04-19T14:55:34.409Z,2.6
2024-04-19T15:10:35.378Z,2.5
2024-04-19T15:25:44.280Z,2.6
2024-04-19T15:40:41.867Z,2.6
2024-04-19T15:55:40.035Z,2.7
2024-04-19T16:10:40.625Z,2.7
2024-04-19T16:25:45.528Z,2.7
2024-04-19T16:40:42.523Z,2.7
2024-04-19T16:55:41.326Z,2.7
2024-04-19T17:10:40.835Z,2.6
2024-04-19T17:25:42.639Z,2.7
2024-04-19T17:40:44.972Z,2.7
2024-04-19T17:55:45.334Z,2.6
2024-04-19T18:10:44.743Z,2.5
2024-04-19T18:25:50.748Z,2.5
2024-04-19T18:41:05.923Z,2.2
2024-04-19T18:55:50.199Z,2.3
2024-04-19T19:10:51.425Z,2.1
2024-04-19T19:26:05.069Z,2.3
2024-04-19T19:40:48.015Z,2.2
2024-04-19T19:55:49.192Z,2.1
2024-04-19T20:10:55.729Z,2.1
2024-04-19T20:26:05.357Z,2.1
2024-04-19T20:41:12.209Z,2.2
2024-04-19T20:56:06.339Z,2.4
2024-04-19T21:10:54.937Z,2.4
2024-04-19T21:25:53.883Z,2.5
2024-04-19T21:40:53.470Z,2.5
2024-04-19T21:55:55.405Z,2.5
2024-04-19T22:00:39.876Z,2.5
2024-04-19T22:15:38.609Z,2.6
2024-04-19T22:30:38.082Z,2.6
2024-04-19T22:45:45.792Z,2.8
2024-04-19T23:15:50.236Z,2.6
2024-04-19T23:30:51.364Z,2.7
2024-04-19T23:45:52.760Z,1.9
